sensor_id;sensor_type;location;lat;lon;timestamp;pressure;altitude;pressure_sealevel;temperature;humidity
10946;BME280;5525;42.648;23.368;2023-02-11T00:02:19;96357.06;;;-2.78;100.00
10946;BME280;5525;42.648;23.368;2023-02-11T00:04:46;96371.25;;;-2.86;100.00
10946;BME280;5525;42.648;23.368;2023-02-11T00:07:13;96361.09;;;-2.82;100.00
10946;BME280;5525;42.648;23.368;2023-02-11T00:09:41;96361.94;;;-2.82;100.00
10946;BME280;5525;42.648;23.368;2023-02-11T00:12:07;96360.06;;;-2.81;100.00
10946;BME280;5525;42.648;23.368;2023-02-11T00:14:34;96354.63;;;-2.80;100.00
10946;BME280;5525;42.648;23.368;2023-02-11T00:17:01;96365.16;;;-2.86;100.00
10946;BME280;5525;42.648;23.368;2023-02-11T00:19:28;96354.56;;;-2.93;100.00
10946;BME280;5525;42.648;23.368;2023-02-11T00:21:54;96354.53;;;-3.06;100.00
10946;BME280;5525;42.648;23.368;2023-02-11T00:24:21;96361.69;;;-2.93;100.00
10946;BME280;5525;42.648;23.368;2023-02-11T00:26:49;96361.25;;;-3.03;100.00
10946;BME280;5525;42.648;23.368;2023-02-11T00:29:16;96349.44;;;-3.07;100.00
10946;BME280;5525;42.648;23.368;2023-02-11T00:31:43;96358.25;;;-2.94;100.00
10946;BME280;5525;42.648;23.368;2023-02-11T00:34:13;96361.88;;;-2.95;100.00
10946;BME280;5525;42.648;23.368;2023-02-11T00:36:40;96356.78;;;-3.03;100.00
10946;BME280;5525;42.648;23.368;2023-02-11T00:39:07;96361.69;;;-3.00;100.00
10946;BME280;5525;42.648;23.368;2023-02-11T00:41:34;96318.06;;;-3.30;100.00
10946;BME280;5525;42.648;23.368;2023-02-11T00:44:03;96360.63;;;-3.05;100.00
10946;BME280;5525;42.648;23.368;2023-02-11T00:46:29;96355.75;;;-3.08;100.00
10946;BME280;5525;42.648;23.368;2023-02-11T00:48:56;96342.91;;;-3.18;100.00
10946;BME280;5525;42.648;23.368;2023-02-11T00:51:23;96352.06;;;-3.14;100.00
10946;BME280;5525;42.648;23.368;2023-02-11T00:53:50;96350.84;;;-3.11;100.00
10946;BME280;5525;42.648;23.368;2023-02-11T00:56:17;96334.16;;;-3.25;100.00
10946;BME280;5525;42.648;23.368;2023-02-11T00:58:44;96328.03;;;-3.25;100.00
10946;BME280;5525;42.648;23.368;2023-02-11T01:01:13;96335.34;;;-3.27;100.00
10946;BME280;5525;42.648;23.368;2023-02-11T01:03:40;96347.78;;;-3.21;100.00
10946;BME280;5525;42.648;23.368;2023-02-11T01:06:08;96342.03;;;-3.31;100.00
10946;BME280;5525;42.648;23.368;2023-02-11T01:08:36;96330.97;;;-3.55;100.00
10946;BME280;5525;42.648;23.368;2023-02-11T01:11:05;96340.56;;;-3.47;100.00
10946;BME280;5525;42.648;23.368;2023-02-11T01:13:34;96329.19;;;-3.47;100.00
10946;BME280;5525;42.648;23.368;2023-02-11T01:16:04;96325.13;;;-3.43;100.00
10946;BME280;5525;42.648;23.368;2023-02-11T01:18:34;96328.38;;;-3.48;100.00
10946;BME280;5525;42.648;23.368;2023-02-11T01:21:01;96323.44;;;-3.58;100.00
10946;BME280;5525;42.648;23.368;2023-02-11T01:23:28;96326.28;;;-3.59;100.00
10946;BME280;5525;42.648;23.368;2023-02-11T01:25:55;96330.34;;;-3.63;100.00
10946;BME280;5525;42.648;23.368;2023-02-11T01:28:25;96336.81;;;-3.66;100.00
10946;BME280;5525;42.648;23.368;2023-02-11T01:30:52;96325.75;;;-3.82;100.00
10946;BME280;5525;42.648;23.368;2023-02-11T01:33:21;96335.63;;;-3.63;100.00
10946;BME280;5525;42.648;23.368;2023-02-11T01:35:49;96340.22;;;-3.72;100.00
10946;BME280;5525;42.648;23.368;2023-02-11T01:38:18;96312.41;;;-3.74;100.00
10946;BME280;5525;42.648;23.368;2023-02-11T01:40:49;96324.38;;;-3.72;100.00
10946;BME280;5525;42.648;23.368;2023-02-11T01:43:16;96330.25;;;-3.76;100.00
10946;BME280;5525;42.648;23.368;2023-02-11T01:45:57;96327.75;;;-3.84;100.00
10946;BME280;5525;42.648;23.368;2023-02-11T01:48:28;96330.00;;;-3.81;100.00
10946;BME280;5525;42.648;23.368;2023-02-11T01:51:00;96318.38;;;-3.93;100.00
10946;BME280;5525;42.648;23.368;2023-02-11T01:53:28;96313.88;;;-3.99;100.00
10946;BME280;5525;42.648;23.368;2023-02-11T01:56:13;96334.22;;;-3.93;100.00
10946;BME280;5525;42.648;23.368;2023-02-11T01:59:02;96320.56;;;-4.03;100.00
10946;BME280;5525;42.648;23.368;2023-02-11T02:01:32;96323.41;;;-3.98;100.00
10946;BME280;5525;42.648;23.368;2023-02-11T02:04:00;96320.78;;;-3.98;100.00
10946;BME280;5525;42.648;23.368;2023-02-11T02:06:33;96323.25;;;-3.97;100.00
10946;BME280;5525;42.648;23.368;2023-02-11T02:09:03;96316.94;;;-3.96;100.00
10946;BME280;5525;42.648;23.368;2023-02-11T02:11:31;96324.34;;;-3.85;100.00
10946;BME280;5525;42.648;23.368;2023-02-11T02:13:58;96335.81;;;-3.99;100.00
10946;BME280;5525;42.648;23.368;2023-02-11T02:16:29;96320.56;;;-4.03;100.00
10946;BME280;5525;42.648;23.368;2023-02-11T02:19:14;96328.38;;;-4.16;100.00
10946;BME280;5525;42.648;23.368;2023-02-11T02:22:23;96324.38;;;-4.06;100.00
10946;BME280;5525;42.648;23.368;2023-02-11T02:25:11;96331.50;;;-4.06;100.00
10946;BME280;5525;42.648;23.368;2023-02-11T02:27:49;96311.78;;;-4.10;100.00
10946;BME280;5525;42.648;23.368;2023-02-11T02:30:40;96324.00;;;-4.03;100.00
10946;BME280;5525;42.648;23.368;2023-02-11T02:33:23;96305.16;;;-4.34;100.00
10946;BME280;5525;42.648;23.368;2023-02-11T02:36:01;96325.03;;;-4.31;100.00
10946;BME280;5525;42.648;23.368;2023-02-11T02:38:36;96323.72;;;-4.42;100.00
10946;BME280;5525;42.648;23.368;2023-02-11T02:41:07;96328.56;;;-4.45;100.00
10946;BME280;5525;42.648;23.368;2023-02-11T02:43:39;96310.56;;;-4.42;100.00
10946;BME280;5525;42.648;23.368;2023-02-11T02:46:11;96321.34;;;-4.37;100.00
10946;BME280;5525;42.648;23.368;2023-02-11T02:48:40;96322.44;;;-4.25;100.00
10946;BME280;5525;42.648;23.368;2023-02-11T02:51:14;96321.75;;;-4.33;100.00
10946;BME280;5525;42.648;23.368;2023-02-11T02:53:54;96331.13;;;-4.31;100.00
10946;BME280;5525;42.648;23.368;2023-02-11T02:56:29;96330.50;;;-4.33;100.00
10946;BME280;5525;42.648;23.368;2023-02-11T02:59:16;96325.03;;;-4.31;100.00
10946;BME280;5525;42.648;23.368;2023-02-11T03:01:56;96320.00;;;-4.26;100.00
10946;BME280;5525;42.648;23.368;2023-02-11T03:04:34;96327.91;;;-4.26;100.00
10946;BME280;5525;42.648;23.368;2023-02-11T03:07:07;96342.53;;;-4.24;100.00
10946;BME280;5525;42.648;23.368;2023-02-11T03:09:39;96322.38;;;-4.31;100.00
10946;BME280;5525;42.648;23.368;2023-02-11T03:12:08;96333.69;;;-4.37;100.00
10946;BME280;5525;42.648;23.368;2023-02-11T03:14:37;96324.78;;;-4.36;100.00
10946;BME280;5525;42.648;23.368;2023-02-11T03:17:05;96327.75;;;-4.46;100.00
10946;BME280;5525;42.648;23.368;2023-02-11T03:19:37;96332.09;;;-4.38;100.00
10946;BME280;5525;42.648;23.368;2023-02-11T03:22:07;96331.88;;;-4.37;100.00
10946;BME280;5525;42.648;23.368;2023-02-11T03:24:38;96333.69;;;-4.37;100.00
10946;BME280;5525;42.648;23.368;2023-02-11T03:27:12;96321.47;;;-4.45;100.00
10946;BME280;5525;42.648;23.368;2023-02-11T03:29:46;96327.75;;;-4.46;100.00
10946;BME280;5525;42.648;23.368;2023-02-11T03:32:19;96329.84;;;-4.41;100.00
10946;BME280;5525;42.648;23.368;2023-02-11T03:34:52;96317.72;;;-4.57;100.00
10946;BME280;5525;42.648;23.368;2023-02-11T03:37:24;96325.44;;;-4.55;100.00
10946;BME280;5525;42.648;23.368;2023-02-11T03:39:55;96319.03;;;-4.67;100.00
10946;BME280;5525;42.648;23.368;2023-02-11T03:42:27;96321.94;;;-4.62;100.00
10946;BME280;5525;42.648;23.368;2023-02-11T03:44:59;96327.50;;;-4.51;100.00
10946;BME280;5525;42.648;23.368;2023-02-11T03:47:27;96331.19;;;-4.45;100.00
10946;BME280;5525;42.648;23.368;2023-02-11T03:49:57;96328.38;;;-4.44;100.00
10946;BME280;5525;42.648;23.368;2023-02-11T03:52:26;96320.91;;;-4.40;100.00
10946;BME280;5525;42.648;23.368;2023-02-11T03:54:56;96319.94;;;-4.33;100.00
10946;BME280;5525;42.648;23.368;2023-02-11T03:57:23;96294.28;;;-4.45;100.00
10946;BME280;5525;42.648;23.368;2023-02-11T03:59:52;96322.81;;;-4.55;100.00
10946;BME280;5525;42.648;23.368;2023-02-11T04:02:20;96303.34;;;-4.54;100.00
10946;BME280;5525;42.648;23.368;2023-02-11T04:04:47;96317.88;;;-4.65;100.00
10946;BME280;5525;42.648;23.368;2023-02-11T04:07:15;96318.81;;;-4.72;100.00
10946;BME280;5525;42.648;23.368;2023-02-11T04:09:42;96316.59;;;-4.69;100.00
10946;BME280;5525;42.648;23.368;2023-02-11T04:12:09;96328.78;;;-4.68;100.00
10946;BME280;5525;42.648;23.368;2023-02-11T04:14:36;96329.72;;;-4.75;100.00
10946;BME280;5525;42.648;23.368;2023-02-11T04:17:03;96322.81;;;-4.76;100.00
10946;BME280;5525;42.648;23.368;2023-02-11T04:19:30;96330.72;;;-4.76;100.00
10946;BME280;5525;42.648;23.368;2023-02-11T04:21:57;96322.44;;;-4.73;100.00
10946;BME280;5525;42.648;23.368;2023-02-11T04:24:25;96323.38;;;-4.81;100.00
10946;BME280;5525;42.648;23.368;2023-02-11T04:26:52;96323.63;;;-4.76;100.00
10946;BME280;5525;42.648;23.368;2023-02-11T04:29:19;96321.31;;;-4.85;100.00
10946;BME280;5525;42.648;23.368;2023-02-11T04:31:46;96316.22;;;-4.87;100.00
10946;BME280;5525;42.648;23.368;2023-02-11T04:34:13;96320.63;;;-4.94;100.00
10946;BME280;5525;42.648;23.368;2023-02-11T04:36:40;96318.31;;;-4.82;100.00
10946;BME280;5525;42.648;23.368;2023-02-11T04:39:07;96316.59;;;-4.90;100.00
10946;BME280;5525;42.648;23.368;2023-02-11T04:41:35;96305.72;;;-4.66;100.00
10946;BME280;5525;42.648;23.368;2023-02-11T04:44:02;96314.91;;;-4.55;100.00
10946;BME280;5525;42.648;23.368;2023-02-11T04:46:28;96314.91;;;-4.55;100.00
10946;BME280;5525;42.648;23.368;2023-02-11T04:48:55;96304.97;;;-4.53;100.00
10946;BME280;5525;42.648;23.368;2023-02-11T04:51:22;96314.53;;;-4.52;100.00
10946;BME280;5525;42.648;23.368;2023-02-11T04:53:49;96307.19;;;-4.57;100.00
10946;BME280;5525;42.648;23.368;2023-02-11T04:56:16;96320.72;;;-4.87;100.00
10946;BME280;5525;42.648;23.368;2023-02-11T04:58:44;96306.94;;;-5.04;100.00
10946;BME280;5525;42.648;23.368;2023-02-11T05:01:13;96302.25;;;-5.08;100.00
10946;BME280;5525;42.648;23.368;2023-02-11T05:03:41;96309.38;;;-5.24;100.00
10946;BME280;5525;42.648;23.368;2023-02-11T05:06:08;96299.16;;;-5.33;100.00
10946;BME280;5525;42.648;23.368;2023-02-11T05:08:35;96306.84;;;-5.17;100.00
10946;BME280;5525;42.648;23.368;2023-02-11T05:11:03;96315.00;;;-5.12;100.00
10946;BME280;5525;42.648;23.368;2023-02-11T05:13:29;96293.03;;;-5.19;100.00
10946;BME280;5525;42.648;23.368;2023-02-11T05:15:58;96311.09;;;-5.16;100.00
10946;BME280;5525;42.648;23.368;2023-02-11T05:18:25;96317.44;;;-5.46;100.00
10946;BME280;5525;42.648;23.368;2023-02-11T05:20:52;96305.91;;;-5.45;100.00
10946;BME280;5525;42.648;23.368;2023-02-11T05:23:19;96295.56;;;-5.47;100.00
10946;BME280;5525;42.648;23.368;2023-02-11T05:25:45;96303.47;;;-5.26;100.00
10946;BME280;5525;42.648;23.368;2023-02-11T05:28:12;96308.63;;;-5.39;100.00
10946;BME280;5525;42.648;23.368;2023-02-11T05:30:39;96309.09;;;-5.64;100.00
10946;BME280;5525;42.648;23.368;2023-02-11T05:33:07;96316.91;;;-5.56;100.00
10946;BME280;5525;42.648;23.368;2023-02-11T05:35:34;96317.09;;;-5.58;100.00
10946;BME280;5525;42.648;23.368;2023-02-11T05:38:00;96300.84;;;-5.97;100.00
10946;BME280;5525;42.648;23.368;2023-02-11T05:40:27;96319.44;;;-6.13;100.00
10946;BME280;5525;42.648;23.368;2023-02-11T05:42:54;96304.56;;;-6.20;100.00
10946;BME280;5525;42.648;23.368;2023-02-11T05:45:21;96318.19;;;-6.17;100.00
10946;BME280;5525;42.648;23.368;2023-02-11T05:47:47;96299.66;;;-6.52;100.00
10946;BME280;5525;42.648;23.368;2023-02-11T05:50:16;96309.34;;;-6.24;100.00
10946;BME280;5525;42.648;23.368;2023-02-11T05:52:42;96296.22;;;-6.24;100.00
10946;BME280;5525;42.648;23.368;2023-02-11T05:55:09;96308.81;;;-6.19;100.00
10946;BME280;5525;42.648;23.368;2023-02-11T05:57:36;96316.88;;;-6.21;100.00
10946;BME280;5525;42.648;23.368;2023-02-11T06:00:04;96317.25;;;-6.24;100.00
10946;BME280;5525;42.648;23.368;2023-02-11T06:02:31;96311.72;;;-6.14;100.00
10946;BME280;5525;42.648;23.368;2023-02-11T06:04:58;96325.41;;;-6.19;100.00
10946;BME280;5525;42.648;23.368;2023-02-11T06:07:26;96332.75;;;-6.14;100.00
10946;BME280;5525;42.648;23.368;2023-02-11T06:09:52;96326.13;;;-6.10;100.00
10946;BME280;5525;42.648;23.368;2023-02-11T06:12:19;96326.06;;;-5.88;100.00
10946;BME280;5525;42.648;23.368;2023-02-11T06:14:46;96322.81;;;-5.69;100.00
10946;BME280;5525;42.648;23.368;2023-02-11T06:17:12;96322.56;;;-5.74;100.00
10946;BME280;5525;42.648;23.368;2023-02-11T06:19:39;96321.25;;;-5.99;100.00
10946;BME280;5525;42.648;23.368;2023-02-11T06:22:06;96332.78;;;-5.64;100.00
10946;BME280;5525;42.648;23.368;2023-02-11T06:24:34;96329.53;;;-5.66;100.00
10946;BME280;5525;42.648;23.368;2023-02-11T06:27:02;96329.13;;;-5.99;100.00
10946;BME280;5525;42.648;23.368;2023-02-11T06:29:29;96326.13;;;-5.81;100.00
10946;BME280;5525;42.648;23.368;2023-02-11T06:31:56;96334.53;;;-5.57;100.00
10946;BME280;5525;42.648;23.368;2023-02-11T06:34:22;96328.25;;;-5.56;100.00
10946;BME280;5525;42.648;23.368;2023-02-11T06:36:49;96324.25;;;-5.52;100.00
10946;BME280;5525;42.648;23.368;2023-02-11T06:39:16;96330.75;;;-5.98;100.00
10946;BME280;5525;42.648;23.368;2023-02-11T06:41:44;96321.75;;;-5.74;100.00
10946;BME280;5525;42.648;23.368;2023-02-11T06:44:11;96319.44;;;-5.63;100.00
10946;BME280;5525;42.648;23.368;2023-02-11T06:46:37;96332.38;;;-5.32;100.00
10946;BME280;5525;42.648;23.368;2023-02-11T06:49:04;96328.88;;;-5.18;100.00
10946;BME280;5525;42.648;23.368;2023-02-11T06:51:31;96330.59;;;-5.10;100.00
10946;BME280;5525;42.648;23.368;2023-02-11T06:53:58;96333.13;;;-4.81;100.00
10946;BME280;5525;42.648;23.368;2023-02-11T06:56:24;96328.91;;;-4.76;100.00
10946;BME280;5525;42.648;23.368;2023-02-11T06:58:53;96331.16;;;-4.94;100.00
10946;BME280;5525;42.648;23.368;2023-02-11T07:01:21;96335.06;;;-4.90;100.00
10946;BME280;5525;42.648;23.368;2023-02-11T07:03:48;96325.41;;;-4.83;100.00
10946;BME280;5525;42.648;23.368;2023-02-11T07:06:17;96329.66;;;-4.82;100.00
10946;BME280;5525;42.648;23.368;2023-02-11T07:08:44;96323.63;;;-4.76;100.00
10946;BME280;5525;42.648;23.368;2023-02-11T07:11:13;96332.41;;;-4.48;100.00
10946;BME280;5525;42.648;23.368;2023-02-11T07:13:40;96327.22;;;-4.35;100.00
10946;BME280;5525;42.648;23.368;2023-02-11T07:16:11;96323.25;;;-4.24;100.00
10946;BME280;5525;42.648;23.368;2023-02-11T07:18:38;96326.19;;;-4.13;100.00
10946;BME280;5525;42.648;23.368;2023-02-11T07:21:06;96308.69;;;-4.20;100.00
10946;BME280;5525;42.648;23.368;2023-02-11T07:23:34;96308.72;;;-3.80;100.00
10946;BME280;5525;42.648;23.368;2023-02-11T07:26:02;96307.41;;;-3.56;100.00
10946;BME280;5525;42.648;23.368;2023-02-11T07:28:29;96302.41;;;-3.38;100.00
10946;BME280;5525;42.648;23.368;2023-02-11T07:30:56;96306.31;;;-3.21;100.00
10946;BME280;5525;42.648;23.368;2023-02-11T07:33:24;96305.53;;;-3.21;100.00
10946;BME280;5525;42.648;23.368;2023-02-11T07:35:51;96299.19;;;-3.27;100.00
10946;BME280;5525;42.648;23.368;2023-02-11T07:38:17;96301.88;;;-3.14;100.00
10946;BME280;5525;42.648;23.368;2023-02-11T07:40:44;96296.97;;;-3.23;100.00
10946;BME280;5525;42.648;23.368;2023-02-11T07:43:11;96285.88;;;-2.93;100.00
10946;BME280;5525;42.648;23.368;2023-02-11T07:45:37;96292.81;;;-2.72;100.00
10946;BME280;5525;42.648;23.368;2023-02-11T07:48:05;96294.84;;;-2.42;100.00
10946;BME280;5525;42.648;23.368;2023-02-11T07:50:33;96285.09;;;-2.28;100.00
10946;BME280;5525;42.648;23.368;2023-02-11T07:53:00;96295.03;;;-2.24;100.00
10946;BME280;5525;42.648;23.368;2023-02-11T07:55:27;96289.34;;;-2.14;100.00
10946;BME280;5525;42.648;23.368;2023-02-11T07:57:54;96284.06;;;-2.08;100.00
10946;BME280;5525;42.648;23.368;2023-02-11T08:00:21;96268.97;;;-2.14;96.19
10946;BME280;5525;42.648;23.368;2023-02-11T08:02:48;96268.97;;;-2.14;96.47
10946;BME280;5525;42.648;23.368;2023-02-11T08:05:14;96272.44;;;-2.07;99.05
10946;BME280;5525;42.648;23.368;2023-02-11T08:07:43;96273.25;;;-2.06;96.85
10946;BME280;5525;42.648;23.368;2023-02-11T08:10:09;96276.91;;;-2.14;93.68
10946;BME280;5525;42.648;23.368;2023-02-11T08:12:36;96269.38;;;-1.97;94.36
10946;BME280;5525;42.648;23.368;2023-02-11T08:15:03;96270.56;;;-2.00;97.33
10946;BME280;5525;42.648;23.368;2023-02-11T08:17:30;96272.38;;;-1.94;94.66
10946;BME280;5525;42.648;23.368;2023-02-11T08:19:57;96266.50;;;-1.96;94.24
10946;BME280;5525;42.648;23.368;2023-02-11T08:22:23;96255.50;;;-1.93;93.52
10946;BME280;5525;42.648;23.368;2023-02-11T08:24:52;96273.22;;;-1.93;94.51
10946;BME280;5525;42.648;23.368;2023-02-11T08:27:18;96256.34;;;-2.05;94.17
10946;BME280;5525;42.648;23.368;2023-02-11T08:29:45;96268.25;;;-1.63;92.18
10946;BME280;5525;42.648;23.368;2023-02-11T08:32:12;96265.50;;;-1.37;91.25
10946;BME280;5525;42.648;23.368;2023-02-11T08:34:39;96256.72;;;-1.38;89.53
10946;BME280;5525;42.648;23.368;2023-02-11T08:37:05;96265.31;;;-1.42;87.78
10946;BME280;5525;42.648;23.368;2023-02-11T08:39:33;96260.16;;;-1.31;87.72
10946;BME280;5525;42.648;23.368;2023-02-11T08:42:01;96244.75;;;-1.47;86.18
10946;BME280;5525;42.648;23.368;2023-02-11T08:44:28;96257.63;;;-1.13;87.61
10946;BME280;5525;42.648;23.368;2023-02-11T08:46:55;96268.56;;;-1.03;83.37
10946;BME280;5525;42.648;23.368;2023-02-11T08:49:22;96263.91;;;-1.07;84.54
10946;BME280;5525;42.648;23.368;2023-02-11T08:51:49;96272.19;;;-0.91;84.90
10946;BME280;5525;42.648;23.368;2023-02-11T08:54:16;96264.16;;;-0.84;82.92
10946;BME280;5525;42.648;23.368;2023-02-11T08:56:43;96276.66;;;-0.91;82.75
10946;BME280;5525;42.648;23.368;2023-02-11T08:59:13;96269.56;;;-0.66;80.83
10946;BME280;5525;42.648;23.368;2023-02-11T09:01:42;96266.69;;;-0.65;83.63
10946;BME280;5525;42.648;23.368;2023-02-11T09:04:11;96269.13;;;-0.63;80.17
10946;BME280;5525;42.648;23.368;2023-02-11T09:06:38;96251.31;;;-0.56;79.74
10946;BME280;5525;42.648;23.368;2023-02-11T09:09:05;96260.09;;;-0.56;81.14
10946;BME280;5525;42.648;23.368;2023-02-11T09:11:35;96265.97;;;-0.54;82.83
10946;BME280;5525;42.648;23.368;2023-02-11T09:14:03;96268.53;;;-0.65;81.71
10946;BME280;5525;42.648;23.368;2023-02-11T09:16:33;96243.34;;;-0.56;81.70
10946;BME280;5525;42.648;23.368;2023-02-11T09:19:02;96252.22;;;-0.69;82.52
10946;BME280;5525;42.648;23.368;2023-02-11T09:21:29;96244.50;;;-0.46;83.62
10946;BME280;5525;42.648;23.368;2023-02-11T09:23:56;96250.06;;;-0.29;82.63
10946;BME280;5525;42.648;23.368;2023-02-11T09:26:25;96249.94;;;-0.16;82.84
10946;BME280;5525;42.648;23.368;2023-02-11T09:28:52;96249.19;;;0.02;81.04
10946;BME280;5525;42.648;23.368;2023-02-11T09:31:21;96245.69;;;0.01;81.84
10946;BME280;5525;42.648;23.368;2023-02-11T09:33:52;96245.66;;;0.08;80.51
10946;BME280;5525;42.648;23.368;2023-02-11T09:36:20;96231.25;;;0.15;76.23
10946;BME280;5525;42.648;23.368;2023-02-11T09:38:47;96234.63;;;0.22;75.22
10946;BME280;5525;42.648;23.368;2023-02-11T09:41:31;96228.06;;;0.43;77.28
10946;BME280;5525;42.648;23.368;2023-02-11T09:44:01;96224.88;;;0.70;74.56
10946;BME280;5525;42.648;23.368;2023-02-11T09:46:31;96218.78;;;0.81;70.88
10946;BME280;5525;42.648;23.368;2023-02-11T09:49:01;96215.13;;;0.46;68.30
10946;BME280;5525;42.648;23.368;2023-02-11T09:51:35;96214.28;;;0.52;69.30
10946;BME280;5525;42.648;23.368;2023-02-11T09:54:09;96201.63;;;0.66;68.01
10946;BME280;5525;42.648;23.368;2023-02-11T09:56:38;96212.47;;;0.64;66.91
10946;BME280;5525;42.648;23.368;2023-02-11T09:59:09;96192.66;;;0.78;65.56
10946;BME280;5525;42.648;23.368;2023-02-11T10:01:40;96197.56;;;0.93;66.43
10946;BME280;5525;42.648;23.368;2023-02-11T10:04:19;96194.63;;;1.24;63.78
10946;BME280;5525;42.648;23.368;2023-02-11T10:06:53;96180.22;;;1.02;64.20
10946;BME280;5525;42.648;23.368;2023-02-11T10:09:31;96173.53;;;1.11;64.01
10946;BME280;5525;42.648;23.368;2023-02-11T10:12:15;96129.09;;;0.88;64.56
10946;BME280;5525;42.648;23.368;2023-02-11T10:15:04;96166.50;;;1.16;63.44
10946;BME280;5525;42.648;23.368;2023-02-11T10:17:37;96166.81;;;0.97;63.64
10946;BME280;5525;42.648;23.368;2023-02-11T10:20:27;96157.25;;;1.19;63.11
10946;BME280;5525;42.648;23.368;2023-02-11T10:22:58;96157.97;;;1.37;63.35
10946;BME280;5525;42.648;23.368;2023-02-11T10:25:28;96145.00;;;1.52;62.13
10946;BME280;5525;42.648;23.368;2023-02-11T10:28:00;96127.66;;;1.61;61.18
10946;BME280;5525;42.648;23.368;2023-02-11T10:30:39;96125.81;;;1.73;60.60
10946;BME280;5525;42.648;23.368;2023-02-11T10:33:14;96121.41;;;1.91;55.98
10946;BME280;5525;42.648;23.368;2023-02-11T10:35:47;96109.78;;;1.97;54.53
10946;BME280;5525;42.648;23.368;2023-02-11T10:38:13;96101.25;;;2.79;52.74
10946;BME280;5525;42.648;23.368;2023-02-11T10:40:40;96087.50;;;3.91;50.88
10946;BME280;5525;42.648;23.368;2023-02-11T10:43:10;96078.38;;;6.35;45.44
10946;BME280;5525;42.648;23.368;2023-02-11T10:45:42;96063.94;;;9.09;38.90
10946;BME280;5525;42.648;23.368;2023-02-11T10:48:37;96065.06;;;10.69;34.08
10946;BME280;5525;42.648;23.368;2023-02-11T10:51:15;96054.44;;;13.72;28.51
10946;BME280;5525;42.648;23.368;2023-02-11T10:53:42;96041.91;;;14.15;27.46
10946;BME280;5525;42.648;23.368;2023-02-11T10:56:13;96050.66;;;13.59;26.15
10946;BME280;5525;42.648;23.368;2023-02-11T10:58:53;96034.66;;;14.02;25.10
10946;BME280;5525;42.648;23.368;2023-02-11T11:01:21;96039.53;;;11.81;27.71
10946;BME280;5525;42.648;23.368;2023-02-11T11:03:57;96021.13;;;12.51;27.84
10946;BME280;5525;42.648;23.368;2023-02-11T11:06:30;96031.94;;;12.65;27.60
10946;BME280;5525;42.648;23.368;2023-02-11T11:08:57;96028.28;;;14.07;26.16
10946;BME280;5525;42.648;23.368;2023-02-11T11:11:26;96027.09;;;13.99;25.94
10946;BME280;5525;42.648;23.368;2023-02-11T11:13:57;96031.97;;;15.74;23.97
10946;BME280;5525;42.648;23.368;2023-02-11T11:16:25;96031.44;;;13.70;25.66
10946;BME280;5525;42.648;23.368;2023-02-11T11:19:13;96029.34;;;14.28;24.79
10946;BME280;5525;42.648;23.368;2023-02-11T11:21:44;96025.88;;;13.08;25.19
10946;BME280;5525;42.648;23.368;2023-02-11T11:24:17;96010.88;;;16.17;23.82
10946;BME280;5525;42.648;23.368;2023-02-11T11:26:46;96017.50;;;16.37;22.91
10946;BME280;5525;42.648;23.368;2023-02-11T11:29:16;96016.06;;;16.48;22.94
10946;BME280;5525;42.648;23.368;2023-02-11T11:31:47;96012.56;;;17.91;21.48
10946;BME280;5525;42.648;23.368;2023-02-11T11:34:21;96026.16;;;18.44;20.87
10946;BME280;5525;42.648;23.368;2023-02-11T11:36:50;96017.38;;;18.39;21.17
10946;BME280;5525;42.648;23.368;2023-02-11T11:39:22;96013.84;;;18.38;21.14
10946;BME280;5525;42.648;23.368;2023-02-11T11:41:53;96007.69;;;17.85;21.19
10946;BME280;5525;42.648;23.368;2023-02-11T11:44:32;95996.66;;;15.95;23.34
10946;BME280;5525;42.648;23.368;2023-02-11T11:47:21;96006.25;;;16.01;23.21
10946;BME280;5525;42.648;23.368;2023-02-11T11:52:45;95996.97;;;16.02;23.06
10946;BME280;5525;42.648;23.368;2023-02-11T11:55:17;95991.47;;;15.56;23.36
10946;BME280;5525;42.648;23.368;2023-02-11T11:57:46;95987.44;;;16.16;22.55
10946;BME280;5525;42.648;23.368;2023-02-11T12:00:16;95983.59;;;14.60;24.43
10946;BME280;5525;42.648;23.368;2023-02-11T12:03:03;95982.19;;;15.65;23.80
10946;BME280;5525;42.648;23.368;2023-02-11T12:05:36;95980.72;;;14.74;24.09
10946;BME280;5525;42.648;23.368;2023-02-11T12:08:16;95970.25;;;16.24;22.70
10946;BME280;5525;42.648;23.368;2023-02-11T12:10:53;95965.69;;;14.93;23.30
10946;BME280;5525;42.648;23.368;2023-02-11T12:13:37;95944.38;;;13.13;24.97
10946;BME280;5525;42.648;23.368;2023-02-11T12:16:13;95963.28;;;13.27;24.98
10946;BME280;5525;42.648;23.368;2023-02-11T12:18:55;95958.53;;;13.10;25.16
10946;BME280;5525;42.648;23.368;2023-02-11T12:21:36;95958.75;;;12.29;26.59
10946;BME280;5525;42.648;23.368;2023-02-11T12:24:17;95952.72;;;13.78;25.09
10946;BME280;5525;42.648;23.368;2023-02-11T12:26:52;95939.53;;;13.54;25.62
10946;BME280;5525;42.648;23.368;2023-02-11T12:29:28;95945.59;;;13.07;26.69
10946;BME280;5525;42.648;23.368;2023-02-11T12:32:09;95929.81;;;12.52;26.89
10946;BME280;5525;42.648;23.368;2023-02-11T12:35:00;95925.09;;;11.95;27.87
10946;BME280;5525;42.648;23.368;2023-02-11T12:37:41;95914.53;;;13.35;25.42
10946;BME280;5525;42.648;23.368;2023-02-11T12:40:16;95918.31;;;11.51;27.15
10946;BME280;5525;42.648;23.368;2023-02-11T12:43:09;95913.69;;;12.69;25.99
10946;BME280;5525;42.648;23.368;2023-02-11T12:48:47;95911.09;;;10.69;27.15
10946;BME280;5525;42.648;23.368;2023-02-11T12:51:25;95909.50;;;10.50;27.92
10946;BME280;5525;42.648;23.368;2023-02-11T12:54:10;95911.59;;;11.49;27.09
10946;BME280;5525;42.648;23.368;2023-02-11T12:56:45;95902.56;;;11.26;26.93
10946;BME280;5525;42.648;23.368;2023-02-11T12:59:31;95901.09;;;10.33;28.01
10946;BME280;5525;42.648;23.368;2023-02-11T13:02:03;95903.94;;;10.22;28.40
10946;BME280;5525;42.648;23.368;2023-02-11T13:04:38;95901.75;;;10.24;27.96
10946;BME280;5525;42.648;23.368;2023-02-11T13:07:11;95901.38;;;9.89;28.82
10946;BME280;5525;42.648;23.368;2023-02-11T13:09:42;95900.31;;;9.90;28.37
10946;BME280;5525;42.648;23.368;2023-02-11T13:12:13;95892.78;;;8.88;30.01
10946;BME280;5525;42.648;23.368;2023-02-11T13:15:03;95896.25;;;9.69;29.09
10946;BME280;5525;42.648;23.368;2023-02-11T13:17:36;95892.47;;;8.66;29.78
10946;BME280;5525;42.648;23.368;2023-02-11T13:20:17;95891.78;;;8.50;30.51